createdAt,value
2017-10-13T00:00:38.216Z,22.35
2017-10-13T00:01:46.885Z,22.39
2017-10-13T00:02:55.880Z,22.33
2017-10-13T00:04:04.901Z,22.33
2017-10-13T00:05:14.566Z,22.31
2017-10-13T00:06:23.567Z,22.33
2017-10-13T00:07:32.588Z,22.35
2017-10-13T00:08:41.237Z,22.36
2017-10-13T00:09:50.908Z,22.27
2017-10-13T00:11:00.246Z,22.31
2017-10-13T00:12:09.246Z,22.25
2017-10-13T00:13:18.882Z,22.25
2017-10-13T00:14:27.925Z,22.35
2017-10-13T00:15:37.246Z,22.24
2017-10-13T00:16:46.576Z,22.31
2017-10-13T00:17:55.571Z,22.28
2017-10-13T00:19:04.666Z,22.31
2017-10-13T00:20:14.005Z,22.27
2017-10-13T00:21:22.685Z,22.37
2017-10-13T00:22:31.684Z,22.28
2017-10-13T00:23:40.336Z,22.28
2017-10-13T00:24:50.322Z,22.27
2017-10-13T00:25:58.981Z,22.28
2017-10-13T00:27:07.643Z,22.28
2017-10-13T00:28:16.629Z,22.27
2017-10-13T00:29:25.599Z,22.27
2017-10-13T00:30:35.589Z,22.25
2017-10-13T00:31:44.249Z,22.3
2017-10-13T00:32:53.260Z,22.27
2017-10-13T00:34:02.584Z,22.3
2017-10-13T00:35:11.273Z,22.31
2017-10-13T00:36:21.606Z,22.27
2017-10-13T00:37:30.587Z,22.35
2017-10-13T00:38:39.588Z,22.31
2017-10-13T00:39:48.224Z,22.3
2017-10-13T00:40:57.569Z,22.24
2017-10-13T00:42:06.656Z,22.33
2017-10-13T00:43:16.303Z,22.31
2017-10-13T00:44:25.956Z,22.31
2017-10-13T00:45:34.952Z,22.31
2017-10-13T00:46:43.937Z,22.27
2017-10-13T00:47:52.909Z,22.27
2017-10-13T00:49:01.891Z,22.3
2017-10-13T00:50:10.541Z,22.28
2017-10-13T00:51:19.196Z,22.28
2017-10-13T00:52:28.166Z,22.28
2017-10-13T00:53:37.260Z,22.22
2017-10-13T00:54:45.939Z,22.24
2017-10-13T00:55:54.602Z,22.28
2017-10-13T00:57:03.323Z,22.27
2017-10-13T00:58:12.305Z,22.24
2017-10-13T00:59:21.297Z,22.3
2017-10-13T01:00:30.273Z,22.27
2017-10-13T01:01:38.945Z,22.28
2017-10-13T01:02:47.919Z,22.28
2017-10-13T01:03:57.246Z,22.33
2017-10-13T01:05:05.913Z,22.3
2017-10-13T01:06:14.584Z,22.24
2017-10-13T01:07:23.887Z,22.28
2017-10-13T01:08:32.860Z,22.37
2017-10-13T01:09:41.868Z,22.3
2017-10-13T01:10:50.857Z,22.22
2017-10-13T01:12:00.528Z,22.27
2017-10-13T01:13:09.274Z,22.24
2017-10-13T01:14:17.948Z,22.24
2017-10-13T01:15:26.970Z,22.31
2017-10-13T01:16:35.652Z,22.33
2017-10-13T01:17:44.675Z,22.25
2017-10-13T01:18:53.745Z,22.3
2017-10-13T01:20:02.412Z,22.27
2017-10-13T01:21:11.727Z,22.3
2017-10-13T01:22:20.478Z,22.25
2017-10-13T01:23:29.460Z,22.25
2017-10-13T01:24:38.473Z,22.28
2017-10-13T01:25:47.142Z,22.35
2017-10-13T01:26:56.125Z,22.2
2017-10-13T01:28:05.111Z,22.25
2017-10-13T01:29:14.426Z,22.22
2017-10-13T01:30:23.429Z,22.22
2017-10-13T01:31:32.430Z,22.22
2017-10-13T01:32:41.435Z,22.31
2017-10-13T01:33:50.412Z,22.24
2017-10-13T01:34:59.781Z,22.25
2017-10-13T01:36:09.421Z,22.31
2017-10-13T01:37:18.075Z,22.28
2017-10-13T01:38:27.377Z,22.21
2017-10-13T01:39:36.672Z,22.25
2017-10-13T01:40:45.337Z,22.27
2017-10-13T01:41:54.989Z,22.24
2017-10-13T01:43:03.683Z,22.27
2017-10-13T01:44:12.696Z,22.21
2017-10-13T01:45:22.124Z,22.21
2017-10-13T01:46:31.451Z,22.25
2017-10-13T01:47:40.472Z,22.22
2017-10-13T01:48:49.456Z,22.2
2017-10-13T01:49:58.760Z,22.27
2017-10-13T01:51:07.750Z,22.27
2017-10-13T01:52:17.074Z,22.25
2017-10-13T01:53:26.054Z,22.27
2017-10-13T01:54:35.098Z,22.25
2017-10-13T01:55:44.106Z,22.14
2017-10-13T01:56:53.086Z,22.17
2017-10-13T01:58:03.061Z,22.25
2017-10-13T01:59:12.391Z,22.22
2017-10-13T02:00:21.713Z,22.2
2017-10-13T02:01:30.370Z,22.2
2017-10-13T02:02:39.385Z,22.2
2017-10-13T02:03:48.049Z,22.22
2017-10-13T02:04:57.031Z,22.27
2017-10-13T02:06:06.027Z,22.24
2017-10-13T02:07:14.703Z,22.28
2017-10-13T02:08:24.103Z,22.14
2017-10-13T02:09:33.119Z,22.27
2017-10-13T02:10:42.430Z,22.22
2017-10-13T02:11:51.408Z,22.2
2017-10-13T02:13:00.096Z,22.17
2017-10-13T02:14:09.748Z,22.22
2017-10-13T02:15:18.739Z,22.2
2017-10-13T02:16:28.063Z,22.17
2017-10-13T02:17:37.394Z,22.2
2017-10-13T02:18:46.386Z,22.28
2017-10-13T02:19:55.067Z,22.17
2017-10-13T02:21:03.784Z,22.2
2017-10-13T02:22:12.770Z,22.21
2017-10-13T02:23:21.761Z,22.21
2017-10-13T02:24:30.759Z,22.22
2017-10-13T02:25:40.090Z,22.2
2017-10-13T02:26:49.077Z,22.18
2017-10-13T02:27:58.730Z,22.22
2017-10-13T02:29:07.722Z,22.18
2017-10-13T02:30:17.356Z,22.18
2017-10-13T02:31:26.681Z,22.21
2017-10-13T02:32:35.681Z,22.21
2017-10-13T02:33:44.998Z,22.15
2017-10-13T02:34:54.643Z,22.18
2017-10-13T02:36:03.296Z,22.22
2017-10-13T02:37:12.304Z,22.2
2017-10-13T02:38:20.968Z,22.21
2017-10-13T02:39:30.297Z,22.22
2017-10-13T02:40:39.616Z,22.21
2017-10-13T02:41:48.585Z,22.18
2017-10-13T02:42:57.907Z,22.21
2017-10-13T02:44:07.572Z,22.21
2017-10-13T02:45:16.249Z,22.24
2017-10-13T02:46:24.912Z,22.22
2017-10-13T02:47:34.233Z,22.24
2017-10-13T02:48:43.527Z,22.24
2017-10-13T02:49:52.538Z,22.21
2017-10-13T02:51:01.852Z,22.18
2017-10-13T02:52:10.845Z,22.2
2017-10-13T02:53:19.846Z,22.22
2017-10-13T02:54:28.836Z,22.21
2017-10-13T02:55:38.168Z,22.12
2017-10-13T02:56:46.817Z,22.27
2017-10-13T02:57:55.505Z,22.18
2017-10-13T02:59:04.476Z,22.22
2017-10-13T03:00:13.526Z,22.2
2017-10-13T03:01:22.183Z,22.2
2017-10-13T03:02:31.188Z,22.14
2017-10-13T03:03:40.521Z,22.24
2017-10-13T03:04:49.835Z,22.18
2017-10-13T03:05:58.478Z,22.2
2017-10-13T03:07:07.485Z,22.2
2017-10-13T03:08:16.827Z,22.15
2017-10-13T03:09:26.502Z,22.25
2017-10-13T03:10:35.550Z,22.21
2017-10-13T03:11:45.542Z,22.2
2017-10-13T03:12:54.218Z,22.18
2017-10-13T03:14:02.932Z,22.14
2017-10-13T03:15:12.256Z,22.17
2017-10-13T03:16:20.902Z,22.24
2017-10-13T03:17:29.553Z,22.24
2017-10-13T03:18:38.203Z,22.17
2017-10-13T03:19:47.180Z,22.24
2017-10-13T03:20:56.484Z,22.14
2017-10-13T03:22:05.789Z,22.15
2017-10-13T03:23:14.780Z,22.24
2017-10-13T03:24:23.434Z,22.24
2017-10-13T03:25:32.405Z,22.2
2017-10-13T03:26:41.385Z,22.17
2017-10-13T03:27:50.053Z,22.18
2017-10-13T03:28:59.714Z,22.21
2017-10-13T03:30:08.709Z,22.2
2017-10-13T03:31:17.701Z,22.22
2017-10-13T03:32:27.010Z,22.24
2017-10-13T03:33:36.316Z,22.22
2017-10-13T03:34:45.618Z,22.21
2017-10-13T03:35:54.939Z,22.14
2017-10-13T03:37:04.285Z,22.21
2017-10-13T03:38:13.597Z,22.2
2017-10-13T03:39:22.248Z,22.14
2017-10-13T03:40:31.013Z,22.15
2017-10-13T03:41:39.985Z,22.17
2017-10-13T03:42:49.637Z,22.21
2017-10-13T03:43:58.297Z,22.18
2017-10-13T03:45:06.980Z,22.15
2017-10-13T03:46:16.015Z,22.1
2017-10-13T03:47:25.366Z,22.18
2017-10-13T03:48:34.048Z,22.2
2017-10-13T03:49:43.050Z,22.14
2017-10-13T03:50:52.385Z,22.25
2017-10-13T03:52:02.035Z,22.21
2017-10-13T03:53:11.018Z,22.18
2017-10-13T03:54:20.378Z,22.15
2017-10-13T03:55:29.690Z,22.2
2017-10-13T03:56:38.353Z,22.14
2017-10-13T03:57:47.671Z,22.14
2017-10-13T03:58:56.970Z,22.17
2017-10-13T04:00:06.289Z,22.14
2017-10-13T04:01:15.268Z,22.18
2017-10-13T04:02:23.991Z,22.2
2017-10-13T04:03:33.307Z,22.2
2017-10-13T04:04:43.300Z,22.1
2017-10-13T04:05:52.641Z,22.18
2017-10-13T04:07:01.950Z,22.18
2017-10-13T04:08:10.947Z,22.14
2017-10-13T04:09:19.593Z,22.14
2017-10-13T04:10:29.247Z,22.17
2017-10-13T04:11:38.224Z,22.06
2017-10-13T04:12:47.567Z,22.1
2017-10-13T04:13:56.864Z,22.14
2017-10-13T04:15:06.191Z,22.03
2017-10-13T04:16:15.238Z,22.14
2017-10-13T04:17:24.237Z,22.14
2017-10-13T04:18:32.960Z,22.1
2017-10-13T04:19:41.954Z,22.18
2017-10-13T04:20:50.926Z,22.18
2017-10-13T04:21:59.584Z,22.18
2017-10-13T04:23:09.225Z,22.1
2017-10-13T04:24:18.537Z,22.14
2017-10-13T04:25:27.885Z,22.15
2017-10-13T04:26:36.876Z,22.17
2017-10-13T04:27:45.869Z,22.21
2017-10-13T04:28:55.194Z,22.14
2017-10-13T04:30:04.191Z,22.07
2017-10-13T04:31:13.201Z,22.17
2017-10-13T04:32:22.178Z,22.1
2017-10-13T04:33:31.169Z,22.18
2017-10-13T04:34:40.501Z,22.05
2017-10-13T04:35:49.487Z,22.2
2017-10-13T04:36:58.141Z,22.14
2017-10-13T04:38:07.466Z,22.1
2017-10-13T04:39:16.441Z,22.14
2017-10-13T04:40:25.108Z,22.18
2017-10-13T04:41:34.796Z,22.2
2017-10-13T04:42:43.775Z,22.17
2017-10-13T04:43:53.093Z,22.07
2017-10-13T04:45:02.082Z,22.18
2017-10-13T04:46:10.731Z,22.2
2017-10-13T04:47:19.390Z,22.18
2017-10-13T04:48:28.046Z,22.14
2017-10-13T04:49:37.692Z,22.18
2017-10-13T04:50:46.367Z,22.14
2017-10-13T04:51:55.370Z,22.22
2017-10-13T04:53:04.356Z,22.1
2017-10-13T04:54:13.340Z,22.2
2017-10-13T04:55:22.636Z,22.14
2017-10-13T04:56:31.303Z,22.18
2017-10-13T04:57:40.360Z,22.14
2017-10-13T04:58:49.340Z,22.14
2017-10-13T04:59:58.324Z,22.17
2017-10-13T05:01:07.991Z,22.17
2017-10-13T05:02:16.974Z,22.18
2017-10-13T05:03:26.026Z,22.09
2017-10-13T05:04:35.750Z,22.18
2017-10-13T05:05:44.825Z,22.22
2017-10-13T05:06:53.843Z,22.21
2017-10-13T05:08:03.502Z,22.18
2017-10-13T05:09:12.165Z,22.22
2017-10-13T05:10:20.870Z,22.22
2017-10-13T05:11:30.214Z,22.22
2017-10-13T05:12:38.885Z,22.21
2017-10-13T05:13:47.544Z,22.21
2017-10-13T05:14:57.233Z,22.21
2017-10-13T05:16:06.564Z,22.24
2017-10-13T05:17:15.891Z,22.24
2017-10-13T05:18:25.226Z,22.17
2017-10-13T05:19:34.219Z,22.2
2017-10-13T05:20:43.229Z,22.18
2017-10-13T05:21:52.874Z,22.24
2017-10-13T05:23:02.230Z,22.21
2017-10-13T05:24:11.575Z,22.24
2017-10-13T05:25:20.560Z,22.28
2017-10-13T05:26:29.223Z,22.3
2017-10-13T05:27:38.847Z,22.33
2017-10-13T05:28:48.491Z,22.3
2017-10-13T05:29:57.801Z,22.24
2017-10-13T05:31:06.775Z,22.31
2017-10-13T05:32:16.431Z,22.39
2017-10-13T05:33:26.102Z,22.37
2017-10-13T05:34:34.787Z,22.39
2017-10-13T05:35:44.202Z,22.37
2017-10-13T05:36:53.195Z,22.42
2017-10-13T05:38:02.522Z,22.43
2017-10-13T05:39:11.217Z,22.45
2017-10-13T05:40:20.219Z,22.43
2017-10-13T05:41:29.205Z,22.55
2017-10-13T05:42:38.528Z,22.51
2017-10-13T05:43:47.551Z,22.51
2017-10-13T05:44:56.217Z,22.57
2017-10-13T05:46:05.241Z,22.61
2017-10-13T05:47:14.590Z,22.57
2017-10-13T05:48:24.227Z,22.6
2017-10-13T05:49:32.904Z,22.6
2017-10-13T05:50:41.563Z,22.62
2017-10-13T05:51:51.408Z,22.52
2017-10-13T05:53:00.920Z,22.68
2017-10-13T05:54:10.344Z,22.62
2017-10-13T05:55:20.015Z,22.6
2017-10-13T05:56:29.983Z,22.64
2017-10-13T05:57:38.966Z,22.61
2017-10-13T05:58:47.954Z,22.65
2017-10-13T05:59:56.761Z,22.61
2017-10-13T06:01:06.102Z,22.52
2017-10-13T06:02:15.119Z,22.55
2017-10-13T06:03:24.113Z,22.61
2017-10-13T06:04:32.882Z,22.55
2017-10-13T06:05:42.377Z,22.55
2017-10-13T06:06:51.399Z,22.61
2017-10-13T06:08:00.711Z,22.52
2017-10-13T06:09:09.699Z,22.47
2017-10-13T06:10:18.759Z,22.52
2017-10-13T06:11:27.813Z,22.49
2017-10-13T06:12:36.546Z,22.54
2017-10-13T06:13:45.207Z,22.51
2017-10-13T06:14:54.525Z,22.54
2017-10-13T06:16:03.909Z,22.47
2017-10-13T06:17:12.920Z,22.43
2017-10-13T06:18:21.590Z,22.52
2017-10-13T06:19:30.929Z,22.52
2017-10-13T06:20:40.279Z,22.55
2017-10-13T06:21:48.945Z,22.54
2017-10-13T06:22:58.284Z,22.51
2017-10-13T06:24:07.641Z,22.55
2017-10-13T06:25:16.295Z,22.55
2017-10-13T06:26:25.651Z,22.6
2017-10-13T06:27:34.338Z,22.58
2017-10-13T06:28:43.396Z,22.57
2017-10-13T06:29:52.697Z,22.61
2017-10-13T06:31:01.711Z,22.6
2017-10-13T06:32:11.031Z,22.57
2017-10-13T06:33:20.348Z,22.55
2017-10-13T06:34:29.326Z,22.54
2017-10-13T06:35:38.640Z,22.62
2017-10-13T06:36:47.972Z,22.54
2017-10-13T06:37:56.629Z,22.62
2017-10-13T06:39:05.948Z,22.55
2017-10-13T06:40:14.961Z,22.57
2017-10-13T06:41:23.979Z,22.54
2017-10-13T06:42:33.618Z,22.51
2017-10-13T06:43:43.017Z,22.55
2017-10-13T06:44:52.015Z,22.51
2017-10-13T06:46:01.324Z,22.45
2017-10-13T06:47:10.982Z,22.47
2017-10-13T06:48:19.977Z,22.55
2017-10-13T06:49:29.279Z,22.51
2017-10-13T06:50:38.365Z,22.58
2017-10-13T06:51:47.356Z,22.46
2017-10-13T06:52:57.002Z,22.51
2017-10-13T06:54:06.022Z,22.57
2017-10-13T06:55:15.334Z,22.49
2017-10-13T06:56:24.331Z,22.49
2017-10-13T06:57:33.663Z,22.49
2017-10-13T06:58:42.996Z,22.6
2017-10-13T06:59:52.318Z,22.49
2017-10-13T07:01:01.302Z,22.54
2017-10-13T07:02:10.966Z,22.51
2017-10-13T07:03:20.283Z,22.51
2017-10-13T07:04:28.930Z,22.57
2017-10-13T07:05:37.925Z,22.46
2017-10-13T07:06:46.915Z,22.55
2017-10-13T07:07:55.949Z,22.54
2017-10-13T07:09:04.917Z,22.58
2017-10-13T07:10:14.220Z,22.49
2017-10-13T07:11:23.521Z,22.51
2017-10-13T07:12:32.174Z,22.46
2017-10-13T07:13:42.135Z,22.47
2017-10-13T07:14:51.486Z,22.57
2017-10-13T07:16:00.151Z,22.45
2017-10-13T07:17:09.475Z,22.61
2017-10-13T07:18:18.471Z,22.61
2017-10-13T07:20:36.197Z,22.55
2017-10-13T07:21:45.205Z,22.46
2017-10-13T07:22:54.188Z,22.52
2017-10-13T07:24:03.180Z,22.6
2017-10-13T07:25:12.197Z,22.55
2017-10-13T07:26:21.217Z,22.62
2017-10-13T07:27:30.200Z,22.58
2017-10-13T07:28:39.518Z,22.51
2017-10-13T07:29:49.510Z,22.57
2017-10-13T07:30:58.924Z,22.52
2017-10-13T07:32:07.593Z,22.51
2017-10-13T07:33:17.582Z,22.52
2017-10-13T07:34:27.232Z,22.52
2017-10-13T07:35:36.283Z,22.55
2017-10-13T07:36:45.278Z,22.55
2017-10-13T07:37:53.973Z,22.54
2017-10-13T07:39:02.949Z,22.61
2017-10-13T07:40:11.949Z,22.57
2017-10-13T07:41:21.257Z,22.6
2017-10-13T07:42:30.290Z,22.54
2017-10-13T07:43:39.942Z,22.52
2017-10-13T07:44:48.596Z,22.6
2017-10-13T07:45:57.653Z,22.6
2017-10-13T07:47:07.430Z,22.61
2017-10-13T07:48:16.454Z,22.57
2017-10-13T07:49:25.520Z,22.54
2017-10-13T07:50:34.496Z,22.62
2017-10-13T07:51:43.813Z,22.6
2017-10-13T07:52:52.832Z,22.6
2017-10-13T07:54:02.484Z,22.55
2017-10-13T07:55:11.148Z,22.58
2017-10-13T07:56:19.831Z,22.62
2017-10-13T07:57:28.824Z,22.57
2017-10-13T07:58:37.537Z,22.62
2017-10-13T07:59:46.269Z,22.6
2017-10-13T08:00:54.970Z,22.73
2017-10-13T08:02:04.364Z,22.67
2017-10-13T08:03:13.035Z,22.6
2017-10-13T08:04:22.347Z,22.58
2017-10-13T08:05:31.343Z,22.57
2017-10-13T08:06:41.332Z,22.65
2017-10-13T08:07:50.645Z,22.67
2017-10-13T08:09:00.672Z,22.58
2017-10-13T08:10:09.673Z,22.58
2017-10-13T08:11:18.672Z,22.62
2017-10-13T08:12:28.006Z,22.58
2017-10-13T08:13:37.329Z,22.65
2017-10-13T08:14:46.645Z,22.61
2017-10-13T08:15:55.662Z,22.57
2017-10-13T08:17:04.899Z,22.55
2017-10-13T08:18:14.317Z,22.57
2017-10-13T08:19:24.212Z,22.55
2017-10-13T08:20:33.879Z,22.57
2017-10-13T08:21:43.209Z,22.7
2017-10-13T08:22:52.574Z,22.57
2017-10-13T08:24:01.238Z,22.62
2017-10-13T08:25:11.228Z,22.61
2017-10-13T08:26:20.292Z,22.67
2017-10-13T08:27:29.280Z,22.64
2017-10-13T08:28:38.622Z,22.67
2017-10-13T08:29:47.947Z,22.57
2017-10-13T08:30:56.930Z,22.55
2017-10-13T08:32:06.363Z,22.67
2017-10-13T08:33:15.568Z,22.68
2017-10-13T08:34:24.893Z,22.6
2017-10-13T08:35:33.992Z,22.57
2017-10-13T08:36:42.656Z,22.6
2017-10-13T08:37:51.854Z,22.6
2017-10-13T08:39:01.384Z,22.61
2017-10-13T08:40:11.689Z,22.58
2017-10-13T08:41:21.006Z,22.61
2017-10-13T08:42:30.335Z,22.6
2017-10-13T08:43:39.662Z,22.67
2017-10-13T08:44:48.322Z,22.68
2017-10-13T08:45:57.329Z,22.64
2017-10-13T08:47:06.318Z,22.67
2017-10-13T08:48:15.681Z,22.72
2017-10-13T08:49:24.353Z,22.73
2017-10-13T08:50:33.354Z,22.65
2017-10-13T08:51:42.021Z,22.8
2017-10-13T08:52:51.446Z,22.77
2017-10-13T08:54:00.110Z,22.75
2017-10-13T08:55:09.167Z,22.79
2017-10-13T08:56:18.153Z,22.83
2017-10-13T08:57:26.821Z,22.77
2017-10-13T08:58:35.492Z,22.9
2017-10-13T08:59:44.154Z,22.95
2017-10-13T09:00:52.829Z,22.94
2017-10-13T09:02:02.476Z,22.95
2017-10-13T09:03:12.100Z,22.94
2017-10-13T09:04:21.088Z,22.92
2017-10-13T09:05:29.770Z,22.98
2017-10-13T09:06:38.744Z,22.95
2017-10-13T09:07:47.768Z,23
2017-10-13T09:08:57.133Z,22.97
2017-10-13T09:10:06.121Z,22.95
2017-10-13T09:11:15.826Z,23.02
2017-10-13T09:12:25.149Z,22.97
2017-10-13T09:13:34.150Z,22.94
2017-10-13T09:14:43.134Z,22.95
2017-10-13T09:15:51.785Z,22.98
2017-10-13T09:17:01.438Z,22.95
2017-10-13T09:18:10.449Z,22.95
2017-10-13T09:19:19.147Z,22.92
2017-10-13T09:20:28.129Z,22.95
2017-10-13T09:21:37.183Z,22.97
2017-10-13T09:22:45.869Z,22.94
2017-10-13T09:23:54.851Z,22.88
2017-10-13T09:25:03.835Z,22.9
2017-10-13T09:26:13.182Z,22.88
2017-10-13T09:27:23.335Z,22.88
2017-10-13T09:28:32.361Z,22.94
2017-10-13T09:29:41.348Z,22.92
2017-10-13T09:30:50.010Z,22.86
2017-10-13T09:31:58.669Z,22.85
2017-10-13T09:33:07.793Z,22.97
2017-10-13T09:34:16.808Z,22.97
2017-10-13T09:35:25.492Z,22.92
2017-10-13T09:36:34.525Z,22.91
2017-10-13T09:37:43.548Z,23
2017-10-13T09:38:52.912Z,22.98
2017-10-13T09:40:01.897Z,23
2017-10-13T09:41:10.581Z,23
2017-10-13T09:42:19.287Z,23.04
2017-10-13T09:43:28.335Z,23.05
2017-10-13T09:44:36.999Z,23.04
2017-10-13T09:45:45.677Z,23.07
2017-10-13T09:46:54.346Z,23.01
2017-10-13T09:48:03.693Z,23.12
2017-10-13T09:49:13.415Z,23.1
2017-10-13T09:50:22.429Z,23.13
2017-10-13T09:51:32.072Z,23.07
2017-10-13T09:52:41.080Z,23.12
2017-10-13T09:53:50.116Z,23.09
2017-10-13T09:54:59.123Z,23.07
2017-10-13T09:56:08.120Z,23.05
2017-10-13T09:57:16.803Z,23.09
2017-10-13T09:58:25.829Z,23.05
2017-10-13T09:59:35.164Z,23.16
2017-10-13T10:00:44.163Z,23.16
2017-10-13T10:01:53.851Z,23.16
2017-10-13T10:03:02.830Z,23.16
2017-10-13T10:04:12.485Z,23.13
2017-10-13T10:05:21.482Z,23.2
2017-10-13T10:06:30.483Z,23.17
2017-10-13T10:07:39.176Z,23.16
2017-10-13T10:08:48.518Z,23.25
2017-10-13T10:09:57.560Z,23.1
2017-10-13T10:11:06.899Z,23.23
2017-10-13T10:12:16.213Z,23.19
2017-10-13T10:13:25.886Z,23.22
2017-10-13T10:14:34.932Z,23.22
2017-10-13T10:15:43.996Z,23.23
2017-10-13T10:16:52.987Z,23.22
2017-10-13T10:18:02.308Z,23.22
2017-10-13T10:19:11.318Z,23.19
2017-10-13T10:20:19.965Z,23.16
2017-10-13T10:21:29.035Z,23.16
2017-10-13T10:22:38.018Z,23.23
2017-10-13T10:23:46.683Z,23.2
2017-10-13T10:24:55.672Z,23.17
2017-10-13T10:26:04.653Z,23.2
2017-10-13T10:27:13.679Z,23.15
2017-10-13T10:28:22.676Z,23.25
2017-10-13T10:29:31.664Z,23.19
2017-10-13T10:30:40.991Z,23.19
2017-10-13T10:31:50.662Z,23.19
2017-10-13T10:32:59.326Z,23.27
2017-10-13T10:34:07.977Z,23.25
2017-10-13T10:35:16.966Z,23.2
2017-10-13T10:36:25.693Z,23.17
2017-10-13T10:37:34.687Z,23.27
2017-10-13T10:38:43.992Z,23.19
2017-10-13T10:39:53.323Z,23.15
2017-10-13T10:41:02.318Z,23.15
2017-10-13T10:42:11.975Z,23.25
2017-10-13T10:43:20.643Z,23.2
2017-10-13T10:44:29.636Z,23.22
2017-10-13T10:45:38.322Z,23.2
2017-10-13T10:46:47.667Z,23.25
2017-10-13T10:47:56.429Z,23.31
2017-10-13T10:49:05.425Z,23.23
2017-10-13T10:50:14.757Z,23.2
2017-10-13T10:51:23.446Z,23.31
2017-10-13T10:52:32.755Z,23.2
2017-10-13T10:53:42.746Z,23.15
2017-10-13T10:54:51.742Z,23.16
2017-10-13T10:56:01.055Z,23.22
2017-10-13T10:57:09.753Z,23.28
2017-10-13T10:58:18.752Z,23.27
2017-10-13T10:59:28.118Z,23.23
2017-10-13T11:00:37.139Z,23.32
2017-10-13T11:01:46.454Z,23.23
2017-10-13T11:02:56.126Z,23.27
2017-10-13T11:04:05.123Z,23.33
2017-10-13T11:05:14.101Z,23.31
2017-10-13T11:06:23.079Z,23.25
2017-10-13T11:07:31.731Z,23.31
2017-10-13T11:08:40.427Z,23.23
2017-10-13T11:09:49.427Z,23.27
2017-10-13T11:10:58.096Z,23.33
2017-10-13T11:12:07.117Z,23.42
2017-10-13T11:13:16.433Z,23.4
2017-10-13T11:14:25.093Z,23.35
2017-10-13T11:15:34.735Z,23.32
2017-10-13T11:16:44.176Z,23.42
2017-10-13T11:17:53.167Z,23.42
2017-10-13T11:19:02.169Z,23.28
2017-10-13T11:20:11.140Z,23.23
2017-10-13T11:21:20.468Z,23.31
2017-10-13T11:22:29.780Z,23.28
2017-10-13T11:23:38.438Z,23.23
2017-10-13T11:24:47.756Z,23.23
2017-10-13T11:25:56.411Z,23.27
2017-10-13T11:27:05.404Z,23.22
2017-10-13T11:28:14.058Z,23.27
2017-10-13T11:29:23.040Z,23.27
2017-10-13T11:30:32.348Z,23.27
2017-10-13T11:31:40.993Z,23.32
2017-10-13T11:32:50.661Z,23.19
2017-10-13T11:33:59.987Z,23.23
2017-10-13T11:35:08.742Z,23.19
2017-10-13T11:36:17.744Z,23.27
2017-10-13T11:37:26.416Z,23.16
2017-10-13T11:38:35.761Z,23.25
2017-10-13T11:39:45.173Z,23.23
2017-10-13T11:40:54.150Z,23.23
2017-10-13T11:42:03.509Z,23.25
2017-10-13T11:43:12.822Z,23.16
2017-10-13T11:44:21.827Z,23.23
2017-10-13T11:45:31.162Z,23.23
2017-10-13T11:46:40.811Z,23.2
2017-10-13T11:47:49.554Z,23.17
2017-10-13T11:48:58.882Z,23.25
2017-10-13T11:50:07.897Z,23.28
2017-10-13T11:51:17.553Z,23.19
2017-10-13T11:52:26.878Z,23.27
2017-10-13T11:53:36.204Z,23.31
2017-10-13T11:54:44.880Z,23.27
2017-10-13T11:55:53.869Z,23.27
2017-10-13T11:57:03.193Z,23.32
2017-10-13T11:58:12.196Z,23.28
2017-10-13T11:59:21.194Z,23.25
2017-10-13T12:00:30.910Z,23.38
2017-10-13T12:01:39.589Z,23.25
2017-10-13T12:02:48.922Z,23.4
2017-10-13T12:03:57.587Z,23.35
2017-10-13T12:05:06.913Z,23.2
2017-10-13T12:06:15.919Z,23.38
2017-10-13T12:07:25.237Z,23.27
2017-10-13T12:08:34.218Z,23.32
2017-10-13T12:09:42.873Z,23.27
2017-10-13T12:10:52.179Z,23.32
2017-10-13T12:12:01.202Z,23.31
2017-10-13T12:13:10.186Z,23.28
2017-10-13T12:14:19.174Z,23.28
2017-10-13T12:15:28.480Z,23.33
2017-10-13T12:16:37.452Z,23.23
2017-10-13T12:17:46.461Z,23.22
2017-10-13T12:18:55.181Z,23.23
2017-10-13T12:20:04.235Z,23.28
2017-10-13T12:21:13.234Z,23.27
2017-10-13T12:22:22.226Z,23.27
2017-10-13T12:23:31.576Z,23.25
2017-10-13T12:24:40.906Z,23.27
2017-10-13T12:25:50.557Z,23.27
2017-10-13T12:26:59.563Z,23.31
2017-10-13T12:28:08.892Z,23.28
2017-10-13T12:29:17.873Z,23.4
2017-10-13T12:30:27.184Z,23.42
2017-10-13T12:31:36.509Z,23.39
2017-10-13T12:32:45.592Z,23.38
2017-10-13T12:33:54.280Z,23.38
2017-10-13T12:35:03.288Z,23.39
2017-10-13T12:36:11.993Z,23.38
2017-10-13T12:37:20.978Z,23.35
2017-10-13T12:38:29.971Z,23.36
2017-10-13T12:39:39.291Z,23.35
2017-10-13T12:40:48.298Z,23.36
2017-10-13T12:41:57.629Z,23.36
2017-10-13T12:43:07.010Z,23.28
2017-10-13T12:44:15.714Z,23.28
2017-10-13T12:45:24.714Z,23.36
2017-10-13T12:46:34.351Z,23.32
2017-10-13T12:47:43.349Z,23.28
2017-10-13T12:48:52.006Z,23.28
2017-10-13T12:50:00.990Z,23.27
2017-10-13T12:51:09.977Z,23.27
2017-10-13T12:52:18.968Z,23.22
2017-10-13T12:53:27.616Z,23.31
2017-10-13T12:54:37.247Z,23.17
2017-10-13T12:55:46.269Z,23.23
2017-10-13T12:56:55.262Z,23.25
2017-10-13T12:58:04.585Z,23.22
2017-10-13T12:59:13.575Z,23.27
2017-10-13T13:00:22.281Z,23.25
2017-10-13T13:01:31.298Z,23.27
2017-10-13T13:02:40.291Z,23.27
2017-10-13T13:03:49.289Z,23.25
2017-10-13T13:04:58.623Z,23.27
2017-10-13T13:06:07.949Z,23.28
2017-10-13T13:07:16.959Z,23.22
2017-10-13T13:08:25.958Z,23.28
2017-10-13T13:09:34.691Z,23.28
2017-10-13T13:10:44.371Z,23.17
2017-10-13T13:11:53.713Z,23.23
2017-10-13T13:13:03.035Z,23.19
2017-10-13T13:14:12.027Z,23.22
2017-10-13T13:15:21.728Z,23.19
2017-10-13T13:16:30.724Z,23.22
2017-10-13T13:17:39.828Z,23.22
2017-10-13T13:18:48.532Z,23.27
2017-10-13T13:19:57.183Z,23.23
2017-10-13T13:21:06.494Z,23.28
2017-10-13T13:22:15.812Z,23.17
2017-10-13T13:23:24.471Z,23.27
2017-10-13T13:24:33.542Z,23.2
2017-10-13T13:25:42.235Z,23.23
2017-10-13T13:26:51.220Z,23.32
2017-10-13T13:28:00.873Z,23.31
2017-10-13T13:29:09.962Z,23.31
2017-10-13T13:30:19.269Z,23.27
2017-10-13T13:31:28.271Z,23.22
2017-10-13T13:32:37.932Z,23.22
2017-10-13T13:33:46.914Z,23.23
2017-10-13T13:34:55.920Z,23.23
2017-10-13T13:36:05.233Z,23.31
2017-10-13T13:37:14.562Z,23.23
2017-10-13T13:38:23.219Z,23.32
2017-10-13T13:39:32.542Z,23.32
2017-10-13T13:40:41.924Z,23.27
2017-10-13T13:41:50.920Z,23.27
2017-10-13T13:42:59.928Z,23.23
2017-10-13T13:44:08.611Z,23.27
2017-10-13T13:45:17.936Z,23.23
2017-10-13T13:46:27.600Z,23.27
2017-10-13T13:47:36.624Z,23.42
2017-10-13T13:48:45.297Z,23.38
2017-10-13T13:49:54.626Z,23.33
2017-10-13T13:51:04.261Z,23.35
2017-10-13T13:52:12.917Z,23.39
2017-10-13T13:53:21.579Z,23.38
2017-10-13T13:54:30.905Z,23.27
2017-10-13T13:55:39.914Z,23.38
2017-10-13T13:56:48.919Z,23.43
2017-10-13T13:57:57.899Z,23.39
2017-10-13T13:59:06.875Z,23.28
2017-10-13T14:00:15.862Z,23.25
2017-10-13T14:01:24.525Z,23.31
2017-10-13T14:02:33.529Z,23.23
2017-10-13T14:03:42.564Z,23.27
2017-10-13T14:04:51.556Z,23.23
2017-10-13T14:06:00.883Z,23.27
2017-10-13T14:07:09.877Z,23.31
2017-10-13T14:08:18.876Z,23.27
2017-10-13T14:09:28.208Z,23.31
2017-10-13T14:10:37.548Z,23.31
2017-10-13T14:11:46.238Z,23.27
2017-10-13T14:12:55.229Z,23.25
2017-10-13T14:14:03.899Z,23.2
2017-10-13T14:15:12.575Z,23.27
2017-10-13T14:16:22.228Z,23.31
2017-10-13T14:17:31.554Z,23.25
2017-10-13T14:18:40.214Z,23.23
2017-10-13T14:19:49.211Z,23.2
2017-10-13T14:20:58.228Z,23.31
2017-10-13T14:22:07.552Z,23.19
2017-10-13T14:23:16.271Z,23.23
2017-10-13T14:24:25.258Z,23.23
2017-10-13T14:25:34.243Z,23.23
2017-10-13T14:26:43.222Z,23.12
2017-10-13T14:27:52.528Z,23.28
2017-10-13T14:29:01.504Z,23.2
2017-10-13T14:30:10.828Z,23.19
2017-10-13T14:31:20.147Z,23.2
2017-10-13T14:32:29.814Z,23.27
2017-10-13T14:33:38.809Z,23.17
2017-10-13T14:34:47.484Z,23.16
2017-10-13T14:35:56.215Z,23.28
2017-10-13T14:37:05.593Z,23.25
2017-10-13T14:38:14.681Z,23.25
2017-10-13T14:39:23.681Z,23.22
2017-10-13T14:40:32.331Z,23.25
2017-10-13T14:41:41.656Z,23.25
2017-10-13T14:42:50.676Z,23.31
2017-10-13T14:44:00.335Z,23.25
2017-10-13T14:45:09.676Z,23.22
2017-10-13T14:46:18.667Z,23.23
2017-10-13T14:47:27.670Z,23.27
2017-10-13T14:48:36.671Z,23.32
2017-10-13T14:49:46.015Z,23.25
2017-10-13T14:50:55.331Z,23.27
2017-10-13T14:52:04.637Z,23.27
2017-10-13T14:53:14.280Z,23.23
2017-10-13T14:54:23.255Z,23.28
2017-10-13T14:55:32.250Z,23.2